Auvergne, Arkansas
Current Conditions -  °F | °C
As of 6:56 AM on Thursday 30 Oct 2014 (Local Time) from KM19 Reporting Station
Clear Clear  
Wind Chill: 37°   Ceiling: Unl
Heat Index: 40°   Visibility: 10mi
Dew Point: 38°   Wind: 5mph
Humidity: 93%   Direction: 340°NNW
Pressure: 30.18"   Gusts: NA
Location:  35.5678°N, 91.2073°W
Report Text: KM19 301156Z AUTO 34004KT 10SM CLR 04/03 A3018 RMK AO2 53003 T00440033 10088 20044 SLP219
Loading
Personal Weather Stations






























Interactive Weather Map New forecast layout! Learn more

10-Day Weather Forecast

Advertisements
Track Severe Weather on mobile